createdAt,value
2022-10-12T00:00:49.079Z,10.41
2022-10-12T00:01:49.298Z,10.38
2022-10-12T00:02:49.428Z,10.41
2022-10-12T00:03:49.589Z,10.40
2022-10-12T00:04:49.750Z,10.38
2022-10-12T00:05:49.920Z,10.38
2022-10-12T00:06:50.087Z,10.35
2022-10-12T00:07:50.260Z,10.35
2022-10-12T00:08:50.416Z,10.34
2022-10-12T00:09:50.599Z,10.34
2022-10-12T00:10:50.759Z,10.31
2022-10-12T00:11:50.928Z,10.31
2022-10-12T00:12:51.122Z,10.31
2022-10-12T00:13:51.267Z,10.30
2022-10-12T00:14:51.438Z,10.28
2022-10-12T00:15:51.605Z,10.28
2022-10-12T00:16:51.798Z,10.26
2022-10-12T00:17:51.986Z,10.26
2022-10-12T00:18:52.147Z,10.25
2022-10-12T00:19:52.319Z,10.26
2022-10-12T00:20:52.498Z,10.26
2022-10-12T00:21:52.678Z,10.25
2022-10-12T00:22:52.875Z,10.23
2022-10-12T00:23:53.031Z,10.23
2022-10-12T00:24:53.234Z,10.23
2022-10-12T00:25:53.378Z,10.22
2022-10-12T00:26:53.553Z,10.22
2022-10-12T00:27:53.758Z,10.20
2022-10-12T00:28:53.942Z,10.22
2022-10-12T00:29:54.060Z,10.19
2022-10-12T00:30:54.262Z,10.19
2022-10-12T00:31:54.407Z,10.20
2022-10-12T00:32:54.610Z,10.19
2022-10-12T00:33:54.750Z,10.19
2022-10-12T00:34:54.919Z,10.19
2022-10-12T00:35:55.077Z,10.19
2022-10-12T00:36:55.248Z,10.17
2022-10-12T00:37:55.467Z,10.17
2022-10-12T00:38:55.584Z,10.16
2022-10-12T00:39:55.736Z,10.13
2022-10-12T00:40:55.902Z,10.13
2022-10-12T00:41:56.067Z,10.15
2022-10-12T00:42:56.245Z,10.13
2022-10-12T00:43:58.605Z,10.13
2022-10-12T00:44:56.605Z,10.13
2022-10-12T00:45:56.766Z,10.12
2022-10-12T00:46:56.925Z,10.10
2022-10-12T00:47:57.122Z,10.10
2022-10-12T00:48:57.287Z,10.07
2022-10-12T00:49:57.454Z,10.04
2022-10-12T00:50:57.617Z,10.05
2022-10-12T00:51:57.775Z,10.02
2022-10-12T00:52:57.955Z,10.01
2022-10-12T00:53:58.127Z,10.01
2022-10-12T00:54:58.304Z,9.99
2022-10-12T00:55:58.457Z,10.01
2022-10-12T00:56:58.655Z,9.98
2022-10-12T00:57:58.835Z,9.98
2022-10-12T00:58:59.015Z,9.98
2022-10-12T00:59:59.176Z,9.97
2022-10-12T01:00:59.443Z,9.97
2022-10-12T01:01:59.545Z,9.98
2022-10-12T01:02:59.717Z,9.97
2022-10-12T01:03:59.874Z,9.95
2022-10-12T01:05:00.035Z,9.95
2022-10-12T01:06:00.185Z,9.97
2022-10-12T01:07:00.354Z,9.95
2022-10-12T01:08:00.535Z,9.94
2022-10-12T01:09:00.694Z,9.95
2022-10-12T01:10:00.891Z,9.94
2022-10-12T01:11:01.073Z,9.94
2022-10-12T01:12:01.232Z,9.91
2022-10-12T01:13:01.437Z,9.95
2022-10-12T01:14:01.597Z,9.95
2022-10-12T01:15:01.759Z,9.94
2022-10-12T01:16:01.934Z,9.92
2022-10-12T01:17:02.125Z,9.92
2022-10-12T01:18:02.322Z,9.92
2022-10-12T01:19:02.487Z,9.92
2022-10-12T01:20:02.640Z,9.91
2022-10-12T01:21:02.830Z,9.91
2022-10-12T01:22:03.019Z,9.92
2022-10-12T01:23:03.213Z,9.94
2022-10-12T01:24:03.367Z,9.92
2022-10-12T01:25:03.563Z,9.92
2022-10-12T01:26:03.713Z,9.89
2022-10-12T01:27:03.882Z,9.91
2022-10-12T01:28:04.062Z,9.87
2022-10-12T01:29:04.214Z,9.89
2022-10-12T01:30:04.403Z,9.89
2022-10-12T01:31:04.593Z,9.86
2022-10-12T01:32:04.751Z,9.86
2022-10-12T01:33:04.958Z,9.86
2022-10-12T01:34:05.103Z,9.84
2022-10-12T01:35:05.294Z,9.84
2022-10-12T01:36:05.482Z,9.87
2022-10-12T01:37:05.650Z,9.84
2022-10-12T01:38:05.841Z,9.86
2022-10-12T01:39:06.012Z,9.84
2022-10-12T01:40:06.163Z,9.83
2022-10-12T01:41:06.352Z,9.84
2022-10-12T01:42:06.542Z,9.83
2022-10-12T01:43:06.716Z,9.83
2022-10-12T01:44:06.892Z,9.83
2022-10-12T01:45:07.053Z,9.83
2022-10-12T01:46:07.241Z,9.84
2022-10-12T01:47:07.432Z,9.83
2022-10-12T01:48:07.602Z,9.83
2022-10-12T01:49:07.750Z,9.82
2022-10-12T01:50:07.941Z,9.79
2022-10-12T01:51:08.092Z,9.82
2022-10-12T01:52:08.260Z,9.83
2022-10-12T01:53:08.430Z,9.82
2022-10-12T01:54:08.611Z,9.79
2022-10-12T01:55:08.759Z,9.80
2022-10-12T01:56:08.951Z,9.82
2022-10-12T01:57:09.099Z,9.79
2022-10-12T01:58:09.322Z,9.79
2022-10-12T01:59:09.470Z,9.79
2022-10-12T02:00:09.660Z,9.79
2022-10-12T02:01:09.911Z,9.79
2022-10-12T02:02:10.018Z,9.74
2022-10-12T02:03:10.219Z,9.79
2022-10-12T02:04:10.384Z,9.76
2022-10-12T02:05:10.532Z,9.74
2022-10-12T02:06:10.731Z,9.76
2022-10-12T02:07:10.879Z,9.76
2022-10-12T02:08:11.080Z,9.76
2022-10-12T02:09:11.229Z,9.73
2022-10-12T02:10:11.427Z,9.74
2022-10-12T02:11:11.606Z,9.74
2022-10-12T02:12:11.749Z,9.73
2022-10-12T02:13:11.956Z,9.74
2022-10-12T02:14:12.110Z,9.76
2022-10-12T02:15:12.298Z,9.72
2022-10-12T02:16:12.488Z,9.72
2022-10-12T02:17:12.641Z,9.73
2022-10-12T02:18:12.818Z,9.69
2022-10-12T02:19:12.968Z,9.73
2022-10-12T02:20:13.161Z,9.69
2022-10-12T02:21:13.347Z,9.72
2022-10-12T02:22:13.555Z,9.68
2022-10-12T02:23:13.709Z,9.68
2022-10-12T02:24:13.897Z,9.69
2022-10-12T02:25:14.052Z,9.68
2022-10-12T02:26:14.265Z,9.68
2022-10-12T02:27:14.438Z,9.66
2022-10-12T02:28:14.694Z,9.65
2022-10-12T02:29:14.793Z,9.65
2022-10-12T02:30:14.979Z,9.65
2022-10-12T02:31:15.159Z,9.64
2022-10-12T02:32:15.367Z,9.62
2022-10-12T02:33:15.518Z,9.64
2022-10-12T02:34:15.707Z,9.64
2022-10-12T02:35:15.887Z,9.61
2022-10-12T02:36:16.046Z,9.61
2022-10-12T02:37:16.217Z,9.61
2022-10-12T02:38:16.368Z,9.61
2022-10-12T02:39:16.557Z,9.59
2022-10-12T02:40:16.737Z,9.58
2022-10-12T02:41:16.937Z,9.59
2022-10-12T02:42:17.116Z,9.59
2022-10-12T02:43:17.266Z,9.58
2022-10-12T02:44:17.456Z,9.58
2022-10-12T02:45:17.646Z,9.58
2022-10-12T02:46:17.827Z,9.56
2022-10-12T02:47:18.033Z,9.56
2022-10-12T02:48:18.185Z,9.55
2022-10-12T02:49:18.384Z,9.56
2022-10-12T02:50:18.568Z,9.55
2022-10-12T02:51:18.715Z,9.56
2022-10-12T02:52:18.915Z,9.55
2022-10-12T02:53:19.065Z,9.55
2022-10-12T02:54:19.285Z,9.54
2022-10-12T02:55:19.415Z,9.54
2022-10-12T02:56:19.607Z,9.54
2022-10-12T02:57:19.807Z,9.51
2022-10-12T02:58:19.965Z,9.51
2022-10-12T02:59:20.124Z,9.54
2022-10-12T03:00:20.344Z,9.51
2022-10-12T03:01:20.536Z,9.51
2022-10-12T03:02:20.654Z,9.51
2022-10-12T03:03:20.808Z,9.48
2022-10-12T03:04:21.006Z,9.50
2022-10-12T03:05:21.164Z,9.50
2022-10-12T03:06:21.355Z,9.50
2022-10-12T03:07:21.565Z,9.47
2022-10-12T03:08:21.702Z,9.47
2022-10-12T03:09:21.892Z,9.47
2022-10-12T03:10:22.061Z,9.47
2022-10-12T03:11:22.213Z,9.46
2022-10-12T03:12:22.423Z,9.46
2022-10-12T03:13:22.575Z,9.43
2022-10-12T03:14:22.768Z,9.43
2022-10-12T03:15:22.914Z,9.44
2022-10-12T03:16:23.103Z,9.43
2022-10-12T03:17:23.284Z,9.44
2022-10-12T03:18:23.441Z,9.43
2022-10-12T03:19:23.594Z,9.41
2022-10-12T03:20:23.766Z,9.40
2022-10-12T03:21:23.921Z,9.43
2022-10-12T03:22:24.113Z,9.41
2022-10-12T03:23:24.254Z,9.41
2022-10-12T03:24:24.455Z,9.40
2022-10-12T03:25:24.602Z,9.40
2022-10-12T03:26:24.793Z,9.40
2022-10-12T03:27:24.971Z,9.40
2022-10-12T03:28:25.162Z,9.39
2022-10-12T03:29:25.292Z,9.37
2022-10-12T03:30:25.473Z,9.37
2022-10-12T03:31:25.630Z,9.36
2022-10-12T03:32:25.833Z,9.36
2022-10-12T03:33:25.990Z,9.32
2022-10-12T03:34:26.183Z,9.32
2022-10-12T03:35:26.333Z,9.29
2022-10-12T03:36:26.522Z,9.25
2022-10-12T03:37:26.693Z,9.22
2022-10-12T03:38:26.842Z,9.22
2022-10-12T03:39:27.038Z,9.21
2022-10-12T03:40:27.201Z,9.22
2022-10-12T03:41:27.382Z,9.23
2022-10-12T03:42:27.571Z,9.22
2022-10-12T03:43:27.722Z,9.21
2022-10-12T03:44:27.911Z,9.19
2022-10-12T03:45:28.102Z,9.21
2022-10-12T03:46:28.301Z,9.19
2022-10-12T03:47:28.481Z,9.18
2022-10-12T03:48:28.641Z,9.18
2022-10-12T03:49:28.830Z,9.16
2022-10-12T03:50:28.991Z,9.14
2022-10-12T03:51:29.180Z,9.14
2022-10-12T03:52:29.359Z,9.14
2022-10-12T03:53:29.660Z,9.11
2022-10-12T03:54:29.701Z,9.10
2022-10-12T03:55:29.892Z,9.11
2022-10-12T03:56:30.050Z,9.08
2022-10-12T03:57:30.231Z,9.10
2022-10-12T03:58:30.381Z,9.06
2022-10-12T03:59:30.569Z,9.06
2022-10-12T04:00:30.750Z,9.04
2022-10-12T04:01:30.949Z,9.06
2022-10-12T04:02:31.120Z,9.03
2022-10-12T04:03:31.279Z,9.02
2022-10-12T04:04:31.471Z,9.02
2022-10-12T04:05:31.637Z,8.99
2022-10-12T04:06:31.819Z,8.99
2022-10-12T04:07:32.019Z,8.95
2022-10-12T04:08:32.179Z,8.94
2022-10-12T04:09:32.329Z,8.91
2022-10-12T04:10:32.503Z,8.91
2022-10-12T04:11:32.655Z,8.88
2022-10-12T04:12:32.857Z,8.88
2022-10-12T04:13:32.998Z,8.89
2022-10-12T04:14:33.190Z,8.88
2022-10-12T04:15:33.379Z,8.87
2022-10-12T04:16:33.576Z,8.87
2022-10-12T04:17:33.738Z,8.87
2022-10-12T04:18:33.908Z,8.87
2022-10-12T04:19:34.058Z,8.85
2022-10-12T04:20:34.228Z,8.84
2022-10-12T04:21:34.420Z,8.79
2022-10-12T04:22:34.627Z,8.78
2022-10-12T04:23:34.776Z,8.74
2022-10-12T04:24:34.967Z,8.71
2022-10-12T04:25:35.118Z,8.71
2022-10-12T04:26:35.307Z,8.71
2022-10-12T04:27:35.691Z,8.70
2022-10-12T04:28:35.730Z,8.70
2022-10-12T04:29:35.866Z,8.69
2022-10-12T04:30:36.056Z,8.69
2022-10-12T04:31:36.255Z,8.69
2022-10-12T04:32:36.426Z,8.67
2022-10-12T04:33:36.577Z,8.69
2022-10-12T04:34:36.778Z,8.67
2022-10-12T04:35:36.926Z,8.63
2022-10-12T04:36:37.123Z,8.67
2022-10-12T04:37:37.652Z,8.66
2022-10-12T04:38:37.466Z,8.67
2022-10-12T04:39:37.655Z,8.66
2022-10-12T04:40:37.856Z,8.64
2022-10-12T04:41:38.006Z,8.63
2022-10-12T04:42:38.215Z,8.64
2022-10-12T04:43:38.375Z,8.64
2022-10-12T04:44:38.534Z,8.63
2022-10-12T04:45:38.715Z,8.64
2022-10-12T04:46:38.899Z,8.66
2022-10-12T04:47:39.564Z,8.64
2022-10-12T04:48:39.235Z,8.63
2022-10-12T04:49:39.415Z,8.63
2022-10-12T04:50:39.606Z,8.63
2022-10-12T04:51:39.755Z,8.64
2022-10-12T04:52:39.964Z,8.64
2022-10-12T04:53:40.118Z,8.63
2022-10-12T04:54:40.315Z,8.63
2022-10-12T04:55:40.474Z,8.63
2022-10-12T04:56:43.104Z,8.63
2022-10-12T04:57:41.802Z,8.63
2022-10-12T04:58:40.973Z,8.63
2022-10-12T04:59:41.159Z,8.63
2022-10-12T05:00:41.345Z,8.64
2022-10-12T05:01:41.583Z,8.61
2022-10-12T05:02:41.747Z,8.64
2022-10-12T05:03:42.302Z,8.61
2022-10-12T05:04:42.039Z,8.60
2022-10-12T05:05:42.202Z,8.60
2022-10-12T05:06:42.364Z,8.58
2022-10-12T05:07:42.571Z,8.56
2022-10-12T05:08:42.713Z,8.56
2022-10-12T05:09:42.883Z,8.55
2022-10-12T05:10:43.053Z,8.56
2022-10-12T05:11:43.238Z,8.55
2022-10-12T05:12:43.433Z,8.53
2022-10-12T05:13:43.563Z,8.53
2022-10-12T05:14:43.742Z,8.55
2022-10-12T05:15:43.912Z,8.52
2022-10-12T05:16:44.095Z,8.53
2022-10-12T05:17:44.288Z,8.52
2022-10-12T05:18:44.432Z,8.52
2022-10-12T05:19:44.602Z,8.53
2022-10-12T05:20:44.775Z,8.51
2022-10-12T05:21:44.954Z,8.51
2022-10-12T05:22:45.172Z,8.51
2022-10-12T05:23:45.308Z,8.49
2022-10-12T05:24:47.948Z,8.49
2022-10-12T05:25:45.643Z,8.49
2022-10-12T05:26:45.822Z,8.51
2022-10-12T05:27:45.981Z,8.52
2022-10-12T05:28:46.180Z,8.51
2022-10-12T05:29:46.311Z,8.49
2022-10-12T05:30:46.500Z,8.49
2022-10-12T05:31:46.699Z,8.51
2022-10-12T05:32:46.889Z,8.51
2022-10-12T05:33:47.058Z,8.53
2022-10-12T05:34:47.240Z,8.52
2022-10-12T05:35:48.905Z,8.53
2022-10-12T05:36:47.610Z,8.55
2022-10-12T05:37:47.812Z,8.56
2022-10-12T05:38:47.961Z,8.56
2022-10-12T05:39:48.140Z,8.56
2022-10-12T05:40:48.437Z,8.58
2022-10-12T05:41:48.489Z,8.58
2022-10-12T05:42:48.690Z,8.60
2022-10-12T05:43:48.863Z,8.61
2022-10-12T05:44:49.048Z,8.63
2022-10-12T05:45:49.220Z,8.64
2022-10-12T05:46:49.456Z,8.63
2022-10-12T05:47:49.627Z,8.63
2022-10-12T05:48:49.790Z,8.69
2022-10-12T05:49:49.969Z,8.67
2022-10-12T05:50:50.110Z,8.69
2022-10-12T05:51:50.269Z,8.71
2022-10-12T05:52:50.479Z,8.71
2022-10-12T05:53:50.664Z,8.73
2022-10-12T05:54:50.799Z,8.76
2022-10-12T05:55:50.960Z,8.76
2022-10-12T05:56:51.119Z,8.79
2022-10-12T05:57:52.089Z,8.78
2022-10-12T05:58:51.419Z,8.78
2022-10-12T05:59:51.643Z,8.78
2022-10-12T06:00:51.814Z,8.81
2022-10-12T06:01:52.048Z,8.84
2022-10-12T06:02:52.162Z,8.84
2022-10-12T06:03:52.329Z,8.88
2022-10-12T06:04:52.479Z,8.89
2022-10-12T06:05:52.667Z,8.92
2022-10-12T06:06:52.824Z,8.92
2022-10-12T06:07:53.515Z,8.94
2022-10-12T06:08:54.168Z,9.00
2022-10-12T06:09:53.352Z,8.99
2022-10-12T06:10:53.533Z,9.00
2022-10-12T06:11:53.717Z,9.02
2022-10-12T06:12:53.917Z,9.06
2022-10-12T06:13:54.068Z,9.08
2022-10-12T06:14:54.239Z,9.10
2022-10-12T06:15:54.437Z,9.11
2022-10-12T06:16:54.732Z,9.16
2022-10-12T06:17:54.787Z,9.18
2022-10-12T06:18:54.918Z,9.22
2022-10-12T06:19:55.066Z,9.23
2022-10-12T06:21:21.013Z,9.28
2022-10-12T06:21:56.416Z,9.32
2022-10-12T06:22:55.606Z,9.34
2022-10-12T06:23:55.765Z,9.37
2022-10-12T06:24:55.896Z,9.37
2022-10-12T06:25:56.096Z,9.36
2022-10-12T06:26:56.254Z,9.34
2022-10-12T06:27:56.485Z,9.34
2022-10-12T06:28:56.634Z,9.40
2022-10-12T06:29:56.751Z,9.44
2022-10-12T06:30:56.944Z,9.46
2022-10-12T06:31:57.085Z,9.47
2022-10-12T06:32:57.274Z,9.50
2022-10-12T06:33:57.415Z,9.51
2022-10-12T06:34:57.585Z,9.56
2022-10-12T06:35:57.775Z,9.62
2022-10-12T06:37:01.652Z,9.65
2022-10-12T06:37:58.127Z,9.68
2022-10-12T06:38:58.347Z,9.72
2022-10-12T06:39:58.483Z,9.76
2022-10-12T06:40:58.658Z,9.77
2022-10-12T06:41:58.862Z,9.83
2022-10-12T06:42:59.013Z,9.91
2022-10-12T06:43:59.191Z,9.92
2022-10-12T06:44:59.398Z,10.01
2022-10-12T06:45:59.544Z,10.04
2022-10-12T06:46:59.725Z,10.13
2022-10-12T06:47:59.925Z,10.17
2022-10-12T06:49:00.083Z,10.26
2022-10-12T06:50:00.243Z,10.31
2022-10-12T06:51:00.463Z,10.37
2022-10-12T06:52:00.583Z,10.38
2022-10-12T06:53:00.801Z,10.42
2022-10-12T06:54:00.941Z,10.51
2022-10-12T06:55:01.135Z,10.56
2022-10-12T06:56:01.325Z,10.61
2022-10-12T06:57:01.473Z,10.69
2022-10-12T06:58:01.675Z,10.76
2022-10-12T06:59:01.841Z,10.82
2022-10-12T07:00:02.007Z,10.90
2022-10-12T07:01:02.133Z,10.99
2022-10-12T07:02:02.413Z,11.07
2022-10-12T07:03:02.553Z,11.14
2022-10-12T07:04:02.694Z,11.19
2022-10-12T07:05:02.824Z,11.25
2022-10-12T07:06:02.999Z,11.32
2022-10-12T07:07:03.165Z,11.36
2022-10-12T07:08:03.392Z,11.45
2022-10-12T07:09:03.533Z,11.50
2022-10-12T07:10:03.721Z,11.59
2022-10-12T07:11:03.895Z,11.63
2022-10-12T07:12:04.092Z,11.69
2022-10-12T07:13:04.312Z,11.73
2022-10-12T07:14:04.443Z,11.78
2022-10-12T07:15:04.633Z,11.83
2022-10-12T07:16:04.792Z,11.88
2022-10-12T07:17:04.940Z,11.99
2022-10-12T07:18:05.163Z,12.04
2022-10-12T07:19:05.301Z,12.15
2022-10-12T07:20:05.515Z,12.24
2022-10-12T07:21:05.662Z,12.28
2022-10-12T07:22:05.850Z,12.28
2022-10-12T07:23:06.042Z,12.32
2022-10-12T07:24:06.193Z,12.37
2022-10-12T07:25:06.361Z,12.42
2022-10-12T07:26:06.534Z,12.45
2022-10-12T07:27:06.722Z,12.50
2022-10-12T07:28:06.978Z,12.60
2022-10-12T07:29:07.082Z,12.75
2022-10-12T07:30:07.252Z,12.93
2022-10-12T07:31:07.413Z,13.01
2022-10-12T07:32:07.598Z,13.09
2022-10-12T07:33:07.808Z,13.15
2022-10-12T07:34:07.942Z,13.23
2022-10-12T07:35:08.134Z,13.28
2022-10-12T07:36:20.820Z,13.33
2022-10-12T07:37:09.450Z,13.37
2022-10-12T07:38:08.621Z,13.38
2022-10-12T07:39:08.772Z,13.41
2022-10-12T07:40:08.971Z,13.42
2022-10-12T07:41:09.197Z,13.42
2022-10-12T07:42:09.311Z,13.41
2022-10-12T07:43:16.176Z,13.44
2022-10-12T07:44:10.822Z,13.49
2022-10-12T07:45:09.875Z,13.59
2022-10-12T07:46:10.068Z,13.71
2022-10-12T07:47:10.222Z,13.87
2022-10-12T07:48:10.441Z,14.14
2022-10-12T07:49:10.587Z,14.35
2022-10-12T07:50:10.772Z,14.47
2022-10-12T07:51:10.951Z,14.63
2022-10-12T07:52:11.141Z,14.91
2022-10-12T07:53:11.338Z,15.33
2022-10-12T07:54:12.808Z,15.64
2022-10-12T07:55:11.653Z,15.75
2022-10-12T07:56:11.801Z,15.68
2022-10-12T07:57:12.002Z,15.65
2022-10-12T07:58:12.172Z,15.57
2022-10-12T07:59:12.319Z,15.59
2022-10-12T08:00:12.508Z,15.80
2022-10-12T08:01:12.773Z,16.26
2022-10-12T08:02:12.986Z,16.66
2022-10-12T08:03:13.124Z,16.76
2022-10-12T08:04:13.247Z,16.76
2022-10-12T08:05:13.430Z,16.78
2022-10-12T08:06:13.614Z,16.91
2022-10-12T08:07:13.810Z,17.49
2022-10-12T08:08:13.983Z,18.31
2022-10-12T08:09:14.229Z,19.19
2022-10-12T08:10:14.355Z,20.04
2022-10-12T08:11:14.490Z,20.80
2022-10-12T08:12:14.701Z,21.46
2022-10-12T08:13:14.862Z,21.96
2022-10-12T08:14:15.010Z,22.45
2022-10-12T08:15:15.181Z,22.93
2022-10-12T08:16:15.383Z,23.34
2022-10-12T08:17:15.531Z,23.68
2022-10-12T08:18:15.714Z,24.06
2022-10-12T08:19:15.902Z,24.48
2022-10-12T08:20:16.092Z,24.86
2022-10-12T08:21:16.251Z,25.13
2022-10-12T08:22:16.452Z,25.50
2022-10-12T08:23:16.599Z,25.85
2022-10-12T08:24:16.782Z,26.23
2022-10-12T08:25:16.943Z,26.37
2022-10-12T08:26:17.123Z,26.47
2022-10-12T08:27:17.364Z,26.70
2022-10-12T08:28:17.585Z,26.93
2022-10-12T08:29:17.628Z,27.11
2022-10-12T08:30:17.832Z,27.15
2022-10-12T08:31:17.995Z,27.33
2022-10-12T08:32:18.174Z,27.49
2022-10-12T08:33:18.324Z,27.52
2022-10-12T08:34:18.514Z,27.47
2022-10-12T08:35:18.698Z,27.64
2022-10-12T08:36:18.887Z,27.71
2022-10-12T08:37:19.065Z,27.83
2022-10-12T08:38:19.223Z,28.08
2022-10-12T08:39:19.424Z,28.39
2022-10-12T08:40:19.564Z,28.60
2022-10-12T08:41:19.756Z,28.86
2022-10-12T08:42:19.905Z,29.14
2022-10-12T08:43:20.084Z,29.38
2022-10-12T08:44:20.236Z,29.61
2022-10-12T08:45:20.404Z,29.86
2022-10-12T08:46:20.626Z,30.06
2022-10-12T08:47:20.775Z,30.12
2022-10-12T08:48:20.986Z,29.82
2022-10-12T08:49:21.135Z,29.42
2022-10-12T08:50:21.323Z,29.19
2022-10-12T08:51:22.458Z,29.34
2022-10-12T08:52:21.685Z,29.66
2022-10-12T08:53:21.848Z,30.05
2022-10-12T08:54:22.057Z,30.43
2022-10-12T08:55:22.213Z,30.70
2022-10-12T08:56:22.416Z,30.87
2022-10-12T08:57:22.600Z,30.96
2022-10-12T08:58:22.755Z,31.00
2022-10-12T08:59:22.967Z,31.18
2022-10-12T09:00:23.192Z,31.37
2022-10-12T09:01:23.345Z,31.55
2022-10-12T09:02:23.480Z,31.69
2022-10-12T09:03:23.621Z,31.78
2022-10-12T09:04:23.849Z,31.92
2022-10-12T09:05:23.998Z,31.99
2022-10-12T09:06:24.191Z,32.12
2022-10-12T09:07:24.350Z,32.23
2022-10-12T09:08:24.511Z,32.36
2022-10-12T09:09:24.689Z,32.37
2022-10-12T09:10:24.872Z,32.55
2022-10-12T09:11:25.091Z,32.68
2022-10-12T09:12:25.252Z,32.80
2022-10-12T09:13:25.391Z,32.87
2022-10-12T09:14:25.610Z,33.01
2022-10-12T09:15:25.750Z,32.82
2022-10-12T09:16:25.943Z,32.56
2022-10-12T09:17:26.111Z,32.59
2022-10-12T09:18:26.281Z,32.53
2022-10-12T09:19:26.441Z,32.68
2022-10-12T09:20:26.613Z,32.83
2022-10-12T09:21:26.804Z,32.97
2022-10-12T09:22:26.986Z,33.24
2022-10-12T09:23:27.159Z,33.42
2022-10-12T09:24:27.352Z,33.59
2022-10-12T09:25:27.532Z,33.65
2022-10-12T09:26:27.733Z,33.69
2022-10-12T09:27:27.873Z,33.74
2022-10-12T09:28:28.116Z,33.55
2022-10-12T09:29:28.251Z,33.43
2022-10-12T09:30:28.421Z,33.17
2022-10-12T09:31:28.604Z,32.60
2022-10-12T09:32:28.786Z,31.92
2022-10-12T09:33:28.978Z,31.15
2022-10-12T09:34:29.164Z,30.47
2022-10-12T09:35:29.356Z,29.82
2022-10-12T09:36:29.536Z,29.27
2022-10-12T09:37:29.695Z,28.78
2022-10-12T09:38:29.883Z,28.32
2022-10-12T09:39:30.076Z,27.87
2022-10-12T09:40:30.263Z,27.45
2022-10-12T09:41:30.447Z,27.00
2022-10-12T09:42:30.626Z,26.47
2022-10-12T09:43:30.811Z,25.91
2022-10-12T09:44:30.999Z,25.40
2022-10-12T09:45:31.136Z,24.88
2022-10-12T09:46:31.348Z,24.40
2022-10-12T09:47:31.513Z,23.96
2022-10-12T09:48:31.705Z,23.59
2022-10-12T09:49:31.837Z,23.20
2022-10-12T09:50:32.017Z,22.83
2022-10-12T09:51:32.216Z,22.54
2022-10-12T09:52:32.367Z,22.30
2022-10-12T09:53:32.547Z,22.04
2022-10-12T09:54:32.766Z,21.88
2022-10-12T09:55:32.890Z,21.70
2022-10-12T09:56:33.087Z,21.57
2022-10-12T09:57:33.237Z,21.42
2022-10-12T09:58:33.429Z,21.25
2022-10-12T09:59:33.599Z,21.06
2022-10-12T10:00:33.827Z,20.90
2022-10-12T10:01:33.997Z,20.81
2022-10-12T10:02:34.149Z,20.60
2022-10-12T10:03:34.339Z,20.44
2022-10-12T10:04:34.527Z,20.34
2022-10-12T10:05:34.707Z,20.22
2022-10-12T10:06:34.904Z,20.11
2022-10-12T10:07:35.076Z,20.04
2022-10-12T10:08:35.259Z,19.99
2022-10-12T10:09:35.422Z,19.88
2022-10-12T10:10:35.630Z,19.82
2022-10-12T10:11:35.763Z,19.81
2022-10-12T10:12:35.939Z,19.69
2022-10-12T10:13:36.109Z,19.63
2022-10-12T10:14:36.306Z,19.54
2022-10-12T10:15:36.459Z,19.51
2022-10-12T10:16:36.632Z,19.48
2022-10-12T10:17:36.798Z,19.51
2022-10-12T10:18:36.928Z,19.52
2022-10-12T10:19:37.122Z,19.47
2022-10-12T10:20:37.322Z,19.45
2022-10-12T10:21:37.459Z,19.40
2022-10-12T10:22:37.659Z,19.40
2022-10-12T10:23:37.841Z,19.40
2022-10-12T10:24:38.011Z,19.37
2022-10-12T10:25:38.218Z,19.31
2022-10-12T10:26:38.372Z,19.26
2022-10-12T10:27:38.549Z,19.27
2022-10-12T10:28:38.797Z,19.26
2022-10-12T10:29:38.914Z,19.26
2022-10-12T10:30:41.233Z,19.26
2022-10-12T10:31:39.250Z,19.26
2022-10-12T10:32:39.419Z,19.24
2022-10-12T10:33:39.628Z,19.29
2022-10-12T10:34:39.759Z,19.31
2022-10-12T10:35:39.950Z,19.21
2022-10-12T10:36:40.101Z,19.16
2022-10-12T10:37:40.287Z,19.15
2022-10-12T10:38:40.472Z,19.15
2022-10-12T10:39:40.650Z,19.15
2022-10-12T10:40:40.845Z,19.18
2022-10-12T10:41:40.990Z,19.21
2022-10-12T10:42:41.175Z,19.19
2022-10-12T10:43:41.361Z,19.15
2022-10-12T10:45:41.767Z,19.19
2022-10-12T10:46:41.950Z,19.19
2022-10-12T10:47:42.061Z,19.19
2022-10-12T10:48:42.241Z,19.19
2022-10-12T10:49:44.431Z,19.19
2022-10-12T10:50:42.594Z,19.19
2022-10-12T10:51:42.743Z,19.24
2022-10-12T10:52:42.931Z,19.27
2022-10-12T10:53:43.162Z,19.33
2022-10-12T10:54:43.259Z,19.27
2022-10-12T10:55:43.450Z,19.30
2022-10-12T10:56:43.596Z,19.30
2022-10-12T10:57:43.823Z,19.36
2022-10-12T10:58:43.941Z,19.36
2022-10-12T10:59:44.144Z,19.37
2022-10-12T11:00:44.752Z,19.37
2022-10-12T11:01:44.538Z,19.39
2022-10-12T11:02:44.641Z,19.40
2022-10-12T11:03:47.104Z,19.44
2022-10-12T11:04:46.018Z,19.45
2022-10-12T11:05:45.155Z,19.48
2022-10-12T11:06:45.332Z,19.49
2022-10-12T11:07:45.511Z,19.48
2022-10-12T11:08:45.672Z,19.52
2022-10-12T11:09:45.852Z,19.45
2022-10-12T11:10:46.057Z,19.47
2022-10-12T11:11:46.200Z,19.47
2022-10-12T11:12:46.412Z,19.52
2022-10-12T11:13:46.548Z,19.54
2022-10-12T11:14:46.736Z,19.54
2022-10-12T11:15:46.925Z,19.56
2022-10-12T11:16:47.071Z,19.59
2022-10-12T11:17:47.262Z,19.64
2022-10-12T11:18:47.452Z,19.67
2022-10-12T11:19:47.610Z,19.73
2022-10-12T11:20:47.805Z,19.82
2022-10-12T11:21:47.951Z,19.89
2022-10-12T11:22:48.135Z,19.89
2022-10-12T11:23:48.325Z,19.92
2022-10-12T11:24:48.482Z,19.94
2022-10-12T11:25:49.448Z,19.94
2022-10-12T11:26:48.849Z,19.94
2022-10-12T11:27:53.442Z,19.92
2022-10-12T11:28:49.236Z,19.95
2022-10-12T11:30:07.857Z,19.95
2022-10-12T11:30:50.555Z,19.99
2022-10-12T11:31:49.703Z,19.99
2022-10-12T11:32:49.874Z,20.02
2022-10-12T11:33:50.061Z,20.00
2022-10-12T11:34:50.241Z,20.03
2022-10-12T11:35:50.448Z,20.07
2022-10-12T11:37:14.822Z,20.06
2022-10-12T11:37:51.773Z,20.10
2022-10-12T11:38:50.924Z,20.14
2022-10-12T11:39:51.104Z,20.16
2022-10-12T11:41:30.922Z,20.18
2022-10-12T11:42:16.867Z,20.24
2022-10-12T11:42:52.644Z,20.26
2022-10-12T11:43:51.806Z,20.32
2022-10-12T11:44:51.988Z,20.37
2022-10-12T11:45:52.185Z,20.48
2022-10-12T11:46:52.355Z,20.55
2022-10-12T11:47:52.534Z,20.65
2022-10-12T11:48:52.714Z,20.75
2022-10-12T11:49:52.896Z,20.82
2022-10-12T11:50:53.086Z,20.93
2022-10-12T11:51:53.244Z,21.00
2022-10-12T11:52:53.425Z,21.06
2022-10-12T11:53:53.606Z,21.12
2022-10-12T11:54:53.791Z,21.09
2022-10-12T11:55:53.985Z,21.09
2022-10-12T11:56:54.164Z,21.11
2022-10-12T11:57:54.346Z,21.11
2022-10-12T11:59:01.035Z,21.05
2022-10-12T11:59:55.689Z,21.00
2022-10-12T12:00:54.907Z,21.05
2022-10-12T12:01:55.049Z,21.09
2022-10-12T12:02:55.229Z,21.15
2022-10-12T12:03:55.470Z,21.18
2022-10-12T12:04:56.151Z,21.21
2022-10-12T12:05:55.804Z,21.21
2022-10-12T12:06:55.986Z,21.21
2022-10-12T12:07:56.135Z,21.22
2022-10-12T12:08:56.316Z,21.18
2022-10-12T12:09:56.497Z,21.20
2022-10-12T12:10:56.706Z,21.09
2022-10-12T12:11:56.847Z,21.02
2022-10-12T12:12:57.025Z,20.99
2022-10-12T12:13:57.208Z,20.96
2022-10-12T12:14:57.403Z,20.93
2022-10-12T12:15:57.587Z,20.82
2022-10-12T12:16:57.758Z,20.77
2022-10-12T12:17:57.955Z,20.67
2022-10-12T12:18:58.116Z,20.55
2022-10-12T12:19:58.309Z,20.48
2022-10-12T12:20:58.506Z,20.47
2022-10-12T12:21:58.645Z,20.50
2022-10-12T12:22:58.847Z,20.44
2022-10-12T12:23:58.987Z,20.41
2022-10-12T12:24:59.170Z,20.36
2022-10-12T12:25:59.371Z,20.28
2022-10-12T12:26:59.498Z,20.24
2022-10-12T12:27:59.692Z,20.16
2022-10-12T12:28:59.930Z,20.13
2022-10-12T12:30:00.041Z,20.11
2022-10-12T12:31:00.302Z,20.11
2022-10-12T12:32:00.399Z,20.07
2022-10-12T12:33:00.575Z,20.03
2022-10-12T12:34:00.738Z,20.04
2022-10-12T12:35:01.133Z,20.06
2022-10-12T12:36:01.103Z,20.04
2022-10-12T12:37:01.238Z,20.04
2022-10-12T12:38:01.428Z,20.10
2022-10-12T12:39:01.608Z,20.06
2022-10-12T12:40:01.790Z,20.06
2022-10-12T12:41:02.006Z,20.07
2022-10-12T12:42:02.747Z,20.03
2022-10-12T12:43:02.308Z,20.03
2022-10-12T12:44:02.515Z,20.04
2022-10-12T12:45:02.656Z,20.04
2022-10-12T12:46:02.849Z,20.03
2022-10-12T12:47:08.583Z,20.00
2022-10-12T12:49:03.348Z,19.96
2022-10-12T12:50:03.585Z,19.92
2022-10-12T12:51:03.720Z,19.94
2022-10-12T12:52:03.859Z,19.94
2022-10-12T12:53:04.050Z,19.94
2022-10-12T12:54:04.239Z,19.95
2022-10-12T12:55:04.417Z,19.95
2022-10-12T12:56:04.610Z,19.95
2022-10-12T12:57:04.789Z,19.92
2022-10-12T12:58:04.968Z,19.92
2022-10-12T12:59:05.149Z,19.96
2022-10-12T13:00:05.338Z,19.99
2022-10-12T13:01:05.551Z,19.99
2022-10-12T13:02:05.753Z,20.00
2022-10-12T13:03:05.860Z,20.03
2022-10-12T13:04:06.029Z,20.04
2022-10-12T13:05:06.189Z,20.06
2022-10-12T13:06:06.416Z,20.04
2022-10-12T13:07:06.553Z,20.04
2022-10-12T13:08:06.740Z,20.03